createdAt,value
2018-09-02T00:02:24.018Z,4.33
2018-09-02T00:04:52.234Z,3.90
2018-09-02T00:07:20.416Z,3.17
2018-09-02T00:09:48.635Z,3.37
2018-09-02T00:12:16.840Z,2.80
2018-09-02T00:14:45.025Z,5.33
2018-09-02T00:17:13.252Z,8.43
2018-09-02T00:19:41.433Z,2.93
2018-09-02T00:22:09.603Z,2.60
2018-09-02T00:24:37.783Z,1.43
2018-09-02T00:27:05.977Z,12.80
2018-09-02T00:29:34.185Z,4.17
2018-09-02T00:32:02.389Z,7.20
2018-09-02T00:34:30.569Z,3.67
2018-09-02T00:36:58.765Z,2.50
2018-09-02T00:39:26.965Z,1.00
2018-09-02T00:41:55.223Z,1.33
2018-09-02T00:44:23.447Z,4.07
2018-09-02T00:46:51.607Z,7.00
2018-09-02T00:49:19.809Z,14.60
2018-09-02T00:51:48.036Z,12.23
2018-09-02T00:54:16.274Z,14.73
2018-09-02T00:56:44.460Z,11.50
2018-09-02T00:59:12.671Z,16.07
2018-09-02T01:01:40.848Z,18.62
2018-09-02T01:04:09.041Z,8.93
2018-09-02T01:06:37.241Z,10.78
2018-09-02T01:09:06.598Z,7.22
2018-09-02T01:11:34.806Z,7.10
2018-09-02T01:14:02.988Z,9.93
2018-09-02T01:16:31.171Z,7.50
2018-09-02T01:18:59.397Z,6.67
2018-09-02T01:21:27.594Z,7.00
2018-09-02T01:23:55.776Z,7.37
2018-09-02T01:26:23.974Z,9.20
2018-09-02T01:28:52.227Z,9.60
2018-09-02T01:31:20.467Z,14.30
2018-09-02T01:33:48.673Z,11.03
2018-09-02T01:36:16.883Z,11.25
2018-09-02T01:38:45.088Z,13.58
2018-09-02T01:41:13.292Z,15.85
2018-09-02T01:43:41.507Z,14.50
2018-09-02T01:46:09.689Z,15.83
2018-09-02T01:48:38.087Z,21.77
2018-09-02T01:51:06.295Z,20.50
2018-09-02T01:53:34.460Z,16.83
2018-09-02T01:56:02.680Z,16.35
2018-09-02T01:58:30.881Z,17.03
2018-09-02T02:00:59.125Z,17.27
2018-09-02T02:03:27.319Z,18.67
2018-09-02T02:05:55.563Z,17.82
2018-09-02T02:08:23.778Z,19.23
2018-09-02T02:10:51.959Z,20.72
2018-09-02T02:13:20.182Z,13.13
2018-09-02T02:15:48.383Z,14.35
2018-09-02T02:18:16.636Z,16.70
2018-09-02T06:04:44.433Z,15.32
2018-09-02T06:07:12.696Z,13.35
2018-09-02T06:09:40.887Z,11.38
2018-09-02T06:12:09.097Z,10.25
2018-09-02T06:14:37.334Z,14.00
2018-09-02T06:17:05.561Z,11.50
2018-09-02T06:19:33.782Z,12.63
2018-09-02T06:22:01.992Z,11.22
2018-09-02T06:24:30.211Z,12.43
2018-09-02T06:26:58.440Z,11.30
2018-09-02T06:29:26.657Z,12.18
2018-09-02T06:31:54.965Z,11.70
2018-09-02T06:34:23.182Z,10.50
2018-09-02T06:36:51.392Z,13.22
2018-09-02T06:39:19.664Z,10.90
2018-09-02T06:41:47.856Z,14.00
2018-09-02T06:44:16.015Z,11.25
2018-09-02T06:46:44.222Z,11.00
2018-09-02T06:49:12.411Z,15.90
2018-09-02T06:51:40.691Z,13.45
2018-09-02T06:54:09.186Z,12.60
2018-09-02T06:56:37.399Z,10.88
2018-09-02T06:59:05.602Z,9.03
2018-09-02T07:01:33.800Z,9.65
2018-09-02T07:04:02.041Z,9.98
2018-09-02T07:06:30.512Z,8.85
2018-09-02T07:09:01.968Z,10.25
2018-09-02T07:11:30.139Z,9.28
2018-09-02T07:13:58.349Z,8.10
2018-09-02T07:16:26.539Z,10.70
2018-09-02T07:18:54.760Z,7.30
2018-09-02T07:21:22.958Z,8.78
2018-09-02T07:23:51.215Z,6.83
2018-09-02T07:26:19.404Z,10.23
2018-09-02T07:28:47.642Z,6.80
2018-09-02T07:31:15.856Z,6.60
2018-09-02T07:33:44.051Z,6.75
2018-09-02T07:36:12.262Z,7.80
2018-09-02T07:38:40.475Z,10.28
2018-09-02T07:41:08.690Z,10.60
2018-09-02T07:43:36.951Z,5.62
2018-09-02T07:46:05.209Z,8.60
2018-09-02T07:48:33.861Z,9.00
2018-09-02T07:51:02.107Z,7.72
2018-09-02T07:53:30.312Z,7.30
2018-09-02T07:55:58.902Z,6.70
2018-09-02T07:58:27.105Z,9.07
2018-09-02T08:00:55.357Z,6.50
2018-09-02T08:03:23.541Z,4.83
2018-09-02T08:05:51.846Z,13.27
2018-09-02T08:08:20.097Z,7.20
2018-09-02T08:10:48.374Z,6.17
2018-09-02T08:13:16.853Z,6.67
2018-09-02T08:15:45.085Z,9.03
2018-09-02T08:18:13.289Z,6.37
2018-09-02T08:20:41.543Z,6.92
2018-09-02T08:23:09.744Z,10.43
2018-09-02T08:25:37.916Z,5.90
2018-09-02T08:28:06.140Z,4.23
2018-09-02T08:30:34.367Z,8.30
2018-09-02T08:33:02.549Z,5.30
2018-09-02T08:35:30.702Z,7.23
2018-09-02T08:37:58.903Z,4.43
2018-09-02T08:40:27.109Z,8.60
2018-09-02T08:42:55.479Z,5.50
2018-09-02T08:45:23.681Z,4.83
2018-09-02T08:47:51.947Z,3.97
2018-09-02T08:50:20.158Z,6.12
2018-09-02T08:52:48.320Z,5.20
2018-09-02T08:55:16.530Z,6.10
2018-09-02T08:57:44.712Z,5.57
2018-09-02T09:00:14.515Z,3.90
2018-09-02T09:02:42.736Z,3.20
2018-09-02T09:05:10.915Z,2.90
2018-09-02T09:07:39.233Z,3.93
2018-09-02T09:10:07.330Z,2.83
2018-09-02T09:12:35.543Z,5.07
2018-09-02T09:15:03.758Z,2.50
2018-09-02T09:17:31.963Z,5.27
2018-09-02T09:20:00.165Z,2.90
2018-09-02T09:22:28.385Z,3.67
2018-09-02T09:24:57.578Z,5.57
2018-09-02T09:27:25.711Z,2.57
2018-09-02T09:29:53.923Z,3.60
2018-09-02T09:32:22.214Z,3.63
2018-09-02T09:34:50.329Z,5.20
2018-09-02T09:37:18.519Z,2.90
2018-09-02T09:39:46.703Z,9.30
2018-09-02T09:42:14.944Z,4.47
2018-09-02T09:44:43.138Z,4.70
2018-09-02T09:47:11.385Z,2.83
2018-09-02T09:49:39.578Z,2.70
2018-09-02T09:54:33.279Z,3.80
2018-09-02T09:57:01.466Z,2.73
2018-09-02T09:59:29.666Z,4.40
2018-09-02T10:01:57.856Z,4.07
2018-09-02T10:04:26.024Z,3.30
2018-09-02T10:06:54.279Z,2.80
2018-09-02T10:09:22.475Z,3.30
2018-09-02T10:11:50.745Z,2.50
2018-09-02T10:14:18.843Z,2.50
2018-09-02T10:16:47.057Z,2.90
2018-09-02T10:19:15.308Z,2.70
2018-09-02T10:21:44.732Z,3.53
2018-09-02T10:24:13.086Z,4.10
2018-09-02T10:26:41.275Z,2.90
2018-09-02T10:29:09.787Z,2.70
2018-09-02T10:31:38.735Z,5.03
2018-09-02T10:34:06.987Z,4.40
2018-09-02T10:36:35.384Z,3.10
2018-09-02T10:39:05.392Z,3.23
2018-09-02T10:41:34.011Z,5.40
2018-09-02T10:44:02.234Z,2.57
2018-09-02T10:46:30.488Z,4.13
2018-09-02T10:48:59.043Z,4.40
2018-09-02T10:51:27.237Z,6.10
2018-09-02T10:53:55.422Z,4.27
2018-09-02T10:56:23.599Z,4.70
2018-09-02T10:58:52.384Z,4.70
2018-09-02T11:01:20.607Z,5.00
2018-09-02T11:03:49.057Z,4.60
2018-09-02T11:06:17.233Z,2.93
2018-09-02T11:08:45.411Z,4.07
2018-09-02T11:11:13.568Z,4.53
2018-09-02T11:13:41.887Z,3.57
2018-09-02T11:16:09.978Z,3.67
2018-09-02T11:18:38.185Z,3.00
2018-09-02T11:21:06.553Z,3.37
2018-09-02T11:23:34.831Z,6.67
2018-09-02T11:40:48.280Z,3.20
2018-09-02T11:43:16.467Z,2.77
2018-09-02T11:45:44.632Z,4.70
2018-09-02T12:10:25.549Z,3.20
2018-09-02T12:12:53.763Z,3.30
2018-09-02T12:15:21.952Z,4.40
2018-09-02T12:17:50.216Z,2.90
2018-09-02T12:20:18.476Z,4.67
2018-09-02T12:39:59.242Z,2.87
2018-09-02T12:42:27.450Z,6.97
2018-09-02T12:45:02.425Z,2.10
2018-09-02T12:52:25.635Z,4.70
2018-09-02T12:54:53.849Z,2.47
2018-09-02T12:57:22.030Z,4.10
2018-09-02T12:59:50.255Z,7.50
2018-09-02T13:02:18.469Z,3.90
2018-09-02T13:07:14.186Z,3.22
2018-09-02T13:09:42.386Z,4.03
2018-09-02T13:12:10.594Z,4.50
2018-09-02T13:14:38.898Z,3.27
2018-09-02T13:17:07.127Z,3.80
2018-09-02T13:19:35.268Z,3.10
2018-09-02T13:22:03.554Z,2.60
2018-09-02T13:24:31.756Z,4.00
2018-09-02T13:26:59.994Z,2.90
2018-09-02T13:29:28.193Z,2.90
2018-09-02T13:31:56.456Z,2.60
2018-09-02T13:34:24.642Z,5.85
2018-09-02T13:36:52.871Z,4.08
2018-09-02T13:39:21.075Z,2.73
2018-09-02T13:41:49.251Z,2.77
2018-09-02T13:44:17.454Z,3.10
2018-09-02T13:46:45.653Z,3.73
2018-09-02T13:49:13.862Z,3.50
2018-09-02T13:51:42.028Z,2.63
2018-09-02T13:54:10.288Z,3.23
2018-09-02T13:56:38.545Z,2.70
2018-09-02T13:59:06.715Z,2.70
2018-09-02T14:01:34.900Z,3.10
2018-09-02T14:04:03.120Z,5.70
2018-09-02T14:06:31.313Z,2.93
2018-09-02T14:08:59.599Z,4.57
2018-09-02T14:11:27.781Z,2.57
2018-09-02T14:13:55.966Z,7.03
2018-09-02T14:16:24.163Z,3.07
2018-09-02T14:18:52.579Z,2.90
2018-09-02T14:21:20.755Z,2.60
2018-09-02T14:23:48.959Z,4.63
2018-09-02T14:26:17.926Z,5.00
2018-09-02T14:28:46.131Z,2.57
2018-09-02T14:31:14.379Z,4.10
2018-09-02T14:33:42.568Z,2.90
2018-09-02T14:36:10.827Z,2.30
2018-09-02T14:38:39.070Z,5.80
2018-09-02T14:41:07.261Z,3.30
2018-09-02T14:43:35.467Z,3.30
2018-09-02T14:46:03.703Z,5.13
2018-09-02T14:48:31.878Z,4.70
2018-09-02T14:51:00.070Z,2.27
2018-09-02T14:53:28.285Z,2.60
2018-09-02T14:55:56.454Z,2.53
2018-09-02T14:58:24.635Z,2.87
2018-09-02T15:00:52.846Z,2.93
2018-09-02T15:03:21.010Z,2.10
2018-09-02T15:05:49.190Z,6.20
2018-09-02T15:08:17.609Z,3.10
2018-09-02T15:10:45.804Z,2.33
2018-09-02T15:13:14.003Z,3.20
2018-09-02T15:15:42.166Z,2.70
2018-09-02T15:18:10.439Z,2.93
2018-09-02T15:20:41.036Z,2.27
2018-09-02T15:23:09.268Z,3.23
2018-09-02T15:25:37.451Z,2.57
2018-09-02T15:28:05.688Z,4.33
2018-09-02T15:30:33.875Z,3.92
2018-09-02T15:33:02.065Z,2.83
2018-09-02T15:35:30.265Z,2.90
2018-09-02T15:37:58.452Z,4.83
2018-09-02T15:40:26.670Z,3.07
2018-09-02T15:42:54.852Z,5.08
2018-09-02T15:45:23.081Z,6.40
2018-09-02T15:47:51.301Z,3.60
2018-09-02T15:55:14.560Z,3.70
2018-09-02T15:57:42.783Z,4.43
2018-09-02T16:00:10.983Z,2.93
2018-09-02T16:02:39.268Z,3.47
2018-09-02T16:05:07.489Z,2.72
2018-09-02T16:07:35.728Z,3.60
2018-09-02T16:10:04.044Z,4.60
2018-09-02T16:12:32.474Z,3.37
2018-09-02T16:15:00.679Z,2.70
2018-09-02T16:17:29.269Z,3.12
2018-09-02T16:19:57.543Z,4.53
2018-09-02T16:22:26.243Z,4.95
2018-09-02T16:24:54.772Z,3.50
2018-09-02T16:27:22.996Z,4.12
2018-09-02T16:29:51.535Z,3.15
2018-09-02T16:32:19.744Z,5.30
2018-09-02T16:34:48.261Z,3.60
2018-09-02T16:37:16.442Z,3.22
2018-09-02T16:39:44.659Z,3.30
2018-09-02T16:42:12.876Z,3.70
2018-09-02T16:44:41.073Z,2.75
2018-09-02T16:47:09.281Z,4.85
2018-09-02T16:49:37.455Z,3.60
2018-09-02T16:52:05.697Z,6.10
2018-09-02T16:54:33.886Z,4.78
2018-09-02T16:57:02.082Z,5.47
2018-09-02T16:59:30.290Z,3.15
2018-09-02T17:01:58.478Z,3.40
2018-09-02T17:04:28.922Z,3.30
2018-09-02T17:06:57.109Z,2.62
2018-09-02T17:09:25.333Z,3.90
2018-09-02T17:11:53.593Z,3.95
2018-09-02T17:14:21.727Z,4.80
2018-09-02T17:16:50.017Z,3.12
2018-09-02T17:19:23.267Z,6.70
2018-09-02T17:21:51.544Z,3.65
2018-09-02T17:24:19.766Z,3.77
2018-09-02T17:26:48.130Z,3.72
2018-09-02T17:29:16.350Z,5.15
2018-09-02T17:31:44.549Z,4.00
2018-09-02T17:34:12.743Z,2.90
2018-09-02T17:36:40.994Z,3.50
2018-09-02T17:39:10.923Z,3.35
2018-09-02T17:41:39.150Z,5.83
2018-09-02T17:44:07.341Z,3.72
2018-09-02T17:46:35.561Z,2.90
2018-09-02T17:49:03.797Z,4.40
2018-09-02T17:51:32.040Z,2.60
2018-09-02T17:54:00.273Z,5.30
2018-09-02T17:56:28.632Z,7.35
2018-09-02T17:58:56.847Z,5.72
2018-09-02T18:01:25.184Z,7.17
2018-09-02T18:03:53.605Z,5.00
2018-09-02T18:06:21.836Z,3.90
2018-09-02T18:08:50.351Z,4.25
2018-09-02T18:11:18.582Z,7.70
2018-09-02T18:13:46.829Z,4.37
2018-09-02T18:16:15.084Z,5.40
2018-09-02T18:18:43.295Z,5.93
2018-09-02T18:21:11.471Z,4.72
2018-09-02T18:23:39.702Z,3.75
2018-09-02T18:26:07.879Z,3.50
2018-09-02T18:28:39.239Z,3.47
2018-09-02T18:31:07.432Z,3.95
2018-09-02T18:33:35.883Z,3.20
2018-09-02T18:36:04.311Z,4.80
2018-09-02T18:38:33.478Z,6.15
2018-09-02T18:41:01.669Z,3.98
2018-09-02T18:43:30.019Z,2.80
2018-09-02T18:45:58.200Z,3.70
2018-09-02T18:48:26.426Z,2.60
2018-09-02T18:50:54.711Z,2.58
2018-09-02T18:53:22.885Z,8.35
2018-09-02T18:55:51.354Z,5.12
2018-09-02T18:58:19.585Z,4.60
2018-09-02T19:00:47.763Z,3.80
2018-09-02T19:03:16.105Z,3.45
2018-09-02T19:05:44.541Z,3.00
2018-09-02T19:08:12.734Z,3.62
2018-09-02T19:10:40.940Z,3.42
2018-09-02T19:13:09.162Z,5.70
2018-09-02T19:15:37.349Z,3.83
2018-09-02T19:18:05.519Z,3.20
2018-09-02T19:20:33.711Z,4.37
2018-09-02T19:23:01.953Z,3.05
2018-09-02T19:25:30.118Z,3.00
2018-09-02T19:27:58.332Z,3.43
2018-09-02T19:30:26.511Z,3.65
2018-09-02T19:32:54.774Z,3.37
2018-09-02T19:35:23.002Z,4.67
2018-09-02T19:37:51.215Z,4.37
2018-09-02T19:40:19.468Z,3.80
2018-09-02T19:42:47.594Z,3.72
2018-09-02T19:45:15.818Z,2.90
2018-09-02T19:47:44.011Z,3.37
2018-09-02T19:50:12.251Z,4.10
2018-09-02T19:52:40.441Z,4.10
2018-09-02T19:55:08.673Z,3.60
2018-09-02T19:57:36.847Z,3.98
2018-09-02T20:00:05.150Z,3.98
2018-09-02T20:02:33.337Z,5.20
2018-09-02T20:05:01.529Z,3.47
2018-09-02T20:07:29.713Z,7.33
2018-09-02T20:09:57.919Z,3.50
2018-09-02T20:12:26.087Z,5.67
2018-09-02T20:14:54.275Z,5.20
2018-09-02T20:17:22.463Z,4.00
2018-09-02T20:19:50.760Z,3.50
2018-09-02T20:22:19.003Z,3.55
2018-09-02T20:24:47.698Z,4.30
2018-09-02T20:27:15.952Z,4.00
2018-09-02T20:29:44.705Z,3.30
2018-09-02T20:32:12.989Z,3.95
2018-09-02T20:34:41.200Z,3.20
2018-09-02T20:37:09.388Z,3.60
2018-09-02T20:39:37.610Z,3.57
2018-09-02T20:42:05.831Z,3.47
2018-09-02T20:44:34.024Z,3.70
2018-09-02T20:47:02.214Z,5.53
2018-09-02T20:49:30.448Z,4.83
2018-09-02T20:51:58.752Z,4.10
2018-09-02T20:54:27.000Z,4.28
2018-09-02T20:56:55.254Z,4.12
2018-09-02T20:59:23.489Z,5.33
2018-09-02T21:01:51.704Z,3.98
2018-09-02T21:04:19.994Z,3.80
2018-09-02T21:06:48.289Z,3.37
2018-09-02T21:09:17.344Z,6.05
2018-09-02T21:11:46.214Z,4.13
2018-09-02T21:16:49.228Z,3.98
2018-09-02T21:19:17.483Z,4.80
2018-09-02T21:21:45.705Z,4.58
2018-09-02T21:24:13.930Z,3.90
2018-09-02T21:26:42.121Z,3.65
2018-09-02T21:29:10.346Z,8.10
2018-09-02T21:31:38.545Z,4.25
2018-09-02T21:34:06.755Z,5.00
2018-09-02T21:36:34.973Z,4.62
2018-09-02T21:39:03.342Z,5.28
2018-09-02T21:41:31.520Z,4.42
2018-09-02T21:43:59.732Z,5.17
2018-09-02T21:46:27.946Z,5.70
2018-09-02T21:48:56.191Z,4.90
2018-09-02T21:51:24.345Z,3.45
2018-09-02T21:53:52.523Z,5.05
2018-09-02T21:56:20.722Z,4.17
2018-09-02T21:58:48.923Z,4.50
2018-09-02T22:01:17.144Z,4.05
2018-09-02T22:03:45.331Z,5.10
2018-09-02T22:06:13.508Z,6.28
2018-09-02T22:08:41.679Z,5.10
2018-09-02T22:11:09.894Z,5.72
2018-09-02T22:13:38.155Z,4.22
2018-09-02T22:16:06.381Z,3.70
2018-09-02T22:18:34.609Z,5.30
2018-09-02T22:21:02.797Z,7.62
2018-09-02T22:23:31.047Z,6.87
2018-09-02T22:25:59.203Z,4.65
2018-09-02T22:28:27.401Z,5.08
2018-09-02T22:30:55.635Z,7.80
2018-09-02T22:33:23.819Z,6.57
2018-09-02T22:35:52.075Z,5.62
2018-09-02T22:38:20.251Z,5.75
2018-09-02T22:40:48.507Z,4.25
2018-09-02T22:43:16.647Z,6.58
2018-09-02T22:45:44.877Z,5.70
2018-09-02T22:48:13.072Z,6.28
2018-09-02T22:50:41.279Z,6.50
2018-09-02T22:53:09.503Z,6.97
2018-09-02T22:55:37.707Z,4.22
2018-09-02T22:58:05.896Z,3.80
2018-09-02T23:00:34.083Z,4.50
2018-09-02T23:03:02.290Z,5.08
2018-09-02T23:05:30.465Z,6.30
2018-09-02T23:07:58.721Z,6.33
2018-09-02T23:10:26.915Z,4.95
2018-09-02T23:12:55.130Z,5.55
2018-09-02T23:15:23.349Z,3.83
2018-09-02T23:17:51.533Z,5.37
2018-09-02T23:20:19.723Z,6.33
2018-09-02T23:22:47.947Z,3.43
2018-09-02T23:25:16.117Z,5.35
2018-09-02T23:27:44.305Z,5.67
2018-09-02T23:30:12.525Z,6.00
2018-09-02T23:32:40.713Z,4.87
2018-09-02T23:35:08.953Z,4.50
2018-09-02T23:37:37.140Z,5.17
2018-09-02T23:40:05.350Z,4.60
2018-09-02T23:42:33.565Z,4.90
2018-09-02T23:45:01.798Z,6.35
2018-09-02T23:47:29.982Z,5.95
2018-09-02T23:49:58.177Z,5.55
2018-09-02T23:52:26.405Z,5.20
2018-09-02T23:54:54.612Z,3.95
2018-09-02T23:57:22.862Z,4.97
2018-09-02T23:59:51.365Z,4.15
